Weather at Roswell Air Center Airport

Public forecast

Using degrees Fahrenheit for public forecast. Weather courtesy of forecast.io.

Current aviation weather report (METAR) for Roswell Air Center Airport

2022/11/26 09:51 (retrieved 35 minutes ago)

KROW 260951Z AUTO 31005KT 10SM OVC055 02/01 A3006 RMK AO2 RAE0852B27E51 SLP173 P0000 T00220006

Aviation forecast (TAF) for Roswell Air Center Airport

2022/11/26 06:24 (retrieved 4 hours ago)

TAF KROW 260523Z 2606/2706 31008KT P6SM VCSH BKN045 FM260700 33009KT 4SM -SN OVC025 TEMPO 2607/2610 1SM -SN OVC012 FM261000 31007KT 6SM BR VCSH SCT008 BKN050 FM261500 29006KT P6SM SCT009 SCT050 FM261800 22006KT P6SM SKC FM262100 24013KT P6SM SKC FM270000 28007KT P6SM FEW200